sensor_id;sensor_type;location;lat;lon;timestamp;P1;durP1;ratioP1;P2;durP2;ratioP2
21816;SDS011;13247;47.504;7.382;2023-07-22T00:00:08;6.90;;;2.15;;
21816;SDS011;13247;47.504;7.382;2023-07-22T00:02:57;2.92;;;2.08;;
21816;SDS011;13247;47.504;7.382;2023-07-22T00:05:41;2.00;;;1.83;;
21816;SDS011;13247;47.504;7.382;2023-07-22T00:08:27;3.25;;;2.35;;
21816;SDS011;13247;47.504;7.382;2023-07-22T00:11:12;4.80;;;2.30;;
21816;SDS011;13247;47.504;7.382;2023-07-22T00:13:56;6.55;;;2.65;;
21816;SDS011;13247;47.504;7.382;2023-07-22T00:16:41;2.78;;;1.80;;
21816;SDS011;13247;47.504;7.382;2023-07-22T00:19:26;3.55;;;2.03;;
21816;SDS011;13247;47.504;7.382;2023-07-22T00:22:11;2.85;;;2.28;;
21816;SDS011;13247;47.504;7.382;2023-07-22T00:24:55;5.75;;;2.40;;
21816;SDS011;13247;47.504;7.382;2023-07-22T00:27:43;2.28;;;2.03;;
21816;SDS011;13247;47.504;7.382;2023-07-22T00:30:28;3.83;;;2.15;;
21816;SDS011;13247;47.504;7.382;2023-07-22T00:33:12;4.25;;;2.10;;
21816;SDS011;13247;47.504;7.382;2023-07-22T00:35:57;7.40;;;2.53;;
21816;SDS011;13247;47.504;7.382;2023-07-22T00:38:42;4.18;;;2.17;;
21816;SDS011;13247;47.504;7.382;2023-07-22T00:41:27;3.28;;;1.80;;
21816;SDS011;13247;47.504;7.382;2023-07-22T00:44:12;4.97;;;1.95;;
21816;SDS011;13247;47.504;7.382;2023-07-22T00:46:57;2.78;;;1.88;;
21816;SDS011;13247;47.504;7.382;2023-07-22T00:49:42;4.45;;;2.50;;
21816;SDS011;13247;47.504;7.382;2023-07-22T00:52:28;4.75;;;2.20;;
21816;SDS011;13247;47.504;7.382;2023-07-22T00:55:16;3.28;;;2.10;;
21816;SDS011;13247;47.504;7.382;2023-07-22T00:58:00;3.55;;;2.15;;
21816;SDS011;13247;47.504;7.382;2023-07-22T01:00:45;3.28;;;2.15;;
21816;SDS011;13247;47.504;7.382;2023-07-22T01:03:30;4.55;;;2.10;;
21816;SDS011;13247;47.504;7.382;2023-07-22T01:06:15;3.90;;;2.40;;
21816;SDS011;13247;47.504;7.382;2023-07-22T01:09:01;3.10;;;2.25;;
21816;SDS011;13247;47.504;7.382;2023-07-22T01:11:50;4.25;;;2.20;;
21816;SDS011;13247;47.504;7.382;2023-07-22T01:14:39;3.78;;;2.25;;
21816;SDS011;13247;47.504;7.382;2023-07-22T01:17:25;4.18;;;2.13;;
21816;SDS011;13247;47.504;7.382;2023-07-22T01:20:10;3.65;;;1.90;;
21816;SDS011;13247;47.504;7.382;2023-07-22T01:22:56;3.38;;;2.30;;
21816;SDS011;13247;47.504;7.382;2023-07-22T01:25:42;3.10;;;2.40;;
21816;SDS011;13247;47.504;7.382;2023-07-22T01:28:27;5.05;;;2.17;;
21816;SDS011;13247;47.504;7.382;2023-07-22T01:31:12;2.30;;;2.10;;
21816;SDS011;13247;47.504;7.382;2023-07-22T01:33:56;4.95;;;2.33;;
21816;SDS011;13247;47.504;7.382;2023-07-22T01:36:42;4.00;;;2.30;;
21816;SDS011;13247;47.504;7.382;2023-07-22T01:39:29;3.33;;;2.17;;
21816;SDS011;13247;47.504;7.382;2023-07-22T01:42:14;10.18;;;2.30;;
21816;SDS011;13247;47.504;7.382;2023-07-22T01:44:58;3.00;;;2.20;;
21816;SDS011;13247;47.504;7.382;2023-07-22T01:47:43;3.67;;;2.30;;
21816;SDS011;13247;47.504;7.382;2023-07-22T01:50:27;2.40;;;2.08;;
21816;SDS011;13247;47.504;7.382;2023-07-22T01:53:12;5.03;;;2.28;;
21816;SDS011;13247;47.504;7.382;2023-07-22T01:55:56;3.78;;;2.08;;
21816;SDS011;13247;47.504;7.382;2023-07-22T01:58:41;4.78;;;2.25;;
21816;SDS011;13247;47.504;7.382;2023-07-22T02:01:26;3.65;;;2.45;;
21816;SDS011;13247;47.504;7.382;2023-07-22T02:04:12;6.60;;;2.33;;
21816;SDS011;13247;47.504;7.382;2023-07-22T02:06:56;2.83;;;2.10;;
21816;SDS011;13247;47.504;7.382;2023-07-22T02:09:41;2.60;;;2.10;;
21816;SDS011;13247;47.504;7.382;2023-07-22T02:12:26;5.88;;;2.00;;
21816;SDS011;13247;47.504;7.382;2023-07-22T02:15:10;6.75;;;2.00;;
21816;SDS011;13247;47.504;7.382;2023-07-22T02:17:55;4.28;;;2.17;;
21816;SDS011;13247;47.504;7.382;2023-07-22T02:20:42;4.05;;;2.30;;
21816;SDS011;13247;47.504;7.382;2023-07-22T02:23:26;3.20;;;1.90;;
21816;SDS011;13247;47.504;7.382;2023-07-22T02:26:11;2.85;;;2.17;;
21816;SDS011;13247;47.504;7.382;2023-07-22T02:28:55;2.80;;;2.17;;
21816;SDS011;13247;47.504;7.382;2023-07-22T02:31:40;4.78;;;2.10;;
21816;SDS011;13247;47.504;7.382;2023-07-22T02:34:24;4.35;;;1.90;;
21816;SDS011;13247;47.504;7.382;2023-07-22T02:37:09;4.72;;;2.38;;
21816;SDS011;13247;47.504;7.382;2023-07-22T02:39:54;3.47;;;2.17;;
21816;SDS011;13247;47.504;7.382;2023-07-22T02:42:39;6.78;;;2.15;;
21816;SDS011;13247;47.504;7.382;2023-07-22T02:45:24;4.68;;;2.13;;
21816;SDS011;13247;47.504;7.382;2023-07-22T02:48:08;4.82;;;2.10;;
21816;SDS011;13247;47.504;7.382;2023-07-22T02:50:53;3.53;;;2.35;;
21816;SDS011;13247;47.504;7.382;2023-07-22T02:53:37;3.95;;;2.30;;
21816;SDS011;13247;47.504;7.382;2023-07-22T02:56:22;2.55;;;2.13;;
21816;SDS011;13247;47.504;7.382;2023-07-22T02:59:07;4.97;;;2.45;;
21816;SDS011;13247;47.504;7.382;2023-07-22T03:01:53;4.65;;;2.08;;
21816;SDS011;13247;47.504;7.382;2023-07-22T03:04:37;4.03;;;2.22;;
21816;SDS011;13247;47.504;7.382;2023-07-22T03:07:22;2.53;;;1.92;;
21816;SDS011;13247;47.504;7.382;2023-07-22T03:10:07;2.47;;;1.80;;
21816;SDS011;13247;47.504;7.382;2023-07-22T03:12:52;3.35;;;2.53;;
21816;SDS011;13247;47.504;7.382;2023-07-22T03:15:38;3.05;;;2.20;;
21816;SDS011;13247;47.504;7.382;2023-07-22T03:18:23;2.97;;;2.25;;
21816;SDS011;13247;47.504;7.382;2023-07-22T03:21:07;3.15;;;2.25;;
21816;SDS011;13247;47.504;7.382;2023-07-22T03:23:52;2.75;;;2.13;;
21816;SDS011;13247;47.504;7.382;2023-07-22T03:26:37;4.03;;;2.08;;
21816;SDS011;13247;47.504;7.382;2023-07-22T03:29:21;2.83;;;2.17;;
21816;SDS011;13247;47.504;7.382;2023-07-22T03:32:07;3.63;;;2.20;;
21816;SDS011;13247;47.504;7.382;2023-07-22T03:34:52;4.22;;;2.55;;
21816;SDS011;13247;47.504;7.382;2023-07-22T03:37:37;2.85;;;2.05;;
21816;SDS011;13247;47.504;7.382;2023-07-22T03:40:22;2.92;;;2.33;;
21816;SDS011;13247;47.504;7.382;2023-07-22T03:43:11;3.90;;;2.38;;
21816;SDS011;13247;47.504;7.382;2023-07-22T03:45:56;4.28;;;2.30;;
21816;SDS011;13247;47.504;7.382;2023-07-22T03:48:40;4.47;;;2.58;;
21816;SDS011;13247;47.504;7.382;2023-07-22T03:51:25;6.53;;;2.28;;
21816;SDS011;13247;47.504;7.382;2023-07-22T03:54:09;3.90;;;2.03;;
21816;SDS011;13247;47.504;7.382;2023-07-22T03:56:54;3.15;;;2.10;;
21816;SDS011;13247;47.504;7.382;2023-07-22T03:59:39;3.60;;;2.25;;
21816;SDS011;13247;47.504;7.382;2023-07-22T04:02:23;4.05;;;2.20;;
21816;SDS011;13247;47.504;7.382;2023-07-22T04:05:08;3.25;;;1.67;;
21816;SDS011;13247;47.504;7.382;2023-07-22T04:07:53;7.20;;;2.38;;
21816;SDS011;13247;47.504;7.382;2023-07-22T04:10:38;3.63;;;2.30;;
21816;SDS011;13247;47.504;7.382;2023-07-22T04:13:23;5.25;;;2.28;;
21816;SDS011;13247;47.504;7.382;2023-07-22T04:16:08;2.67;;;2.15;;
21816;SDS011;13247;47.504;7.382;2023-07-22T04:18:52;3.95;;;2.38;;
21816;SDS011;13247;47.504;7.382;2023-07-22T04:21:37;3.28;;;2.35;;
21816;SDS011;13247;47.504;7.382;2023-07-22T04:24:22;3.35;;;2.20;;
21816;SDS011;13247;47.504;7.382;2023-07-22T04:27:08;4.15;;;2.45;;
21816;SDS011;13247;47.504;7.382;2023-07-22T04:29:53;3.63;;;2.10;;
21816;SDS011;13247;47.504;7.382;2023-07-22T04:32:37;4.03;;;2.33;;
21816;SDS011;13247;47.504;7.382;2023-07-22T04:35:22;3.55;;;2.33;;
21816;SDS011;13247;47.504;7.382;2023-07-22T04:38:06;6.15;;;2.63;;
21816;SDS011;13247;47.504;7.382;2023-07-22T04:40:51;6.05;;;3.15;;
21816;SDS011;13247;47.504;7.382;2023-07-22T04:43:35;6.30;;;2.45;;
21816;SDS011;13247;47.504;7.382;2023-07-22T04:46:20;3.92;;;1.98;;
21816;SDS011;13247;47.504;7.382;2023-07-22T04:49:04;5.50;;;2.22;;
21816;SDS011;13247;47.504;7.382;2023-07-22T04:51:49;3.55;;;2.00;;
21816;SDS011;13247;47.504;7.382;2023-07-22T04:54:34;4.43;;;2.33;;
21816;SDS011;13247;47.504;7.382;2023-07-22T04:57:18;3.10;;;2.25;;
21816;SDS011;13247;47.504;7.382;2023-07-22T05:00:04;2.88;;;1.88;;
21816;SDS011;13247;47.504;7.382;2023-07-22T05:02:52;5.10;;;2.40;;
21816;SDS011;13247;47.504;7.382;2023-07-22T05:05:39;4.63;;;2.45;;
21816;SDS011;13247;47.504;7.382;2023-07-22T05:08:23;2.92;;;2.17;;
21816;SDS011;13247;47.504;7.382;2023-07-22T05:11:08;4.45;;;2.35;;
21816;SDS011;13247;47.504;7.382;2023-07-22T05:13:53;2.92;;;2.13;;
21816;SDS011;13247;47.504;7.382;2023-07-22T05:16:37;4.15;;;2.30;;
21816;SDS011;13247;47.504;7.382;2023-07-22T05:19:22;3.53;;;2.20;;
21816;SDS011;13247;47.504;7.382;2023-07-22T05:22:07;3.08;;;2.20;;
21816;SDS011;13247;47.504;7.382;2023-07-22T05:24:51;3.13;;;2.33;;
21816;SDS011;13247;47.504;7.382;2023-07-22T05:27:36;4.05;;;2.00;;
21816;SDS011;13247;47.504;7.382;2023-07-22T05:30:20;5.53;;;2.53;;
21816;SDS011;13247;47.504;7.382;2023-07-22T05:33:05;2.85;;;2.22;;
21816;SDS011;13247;47.504;7.382;2023-07-22T05:35:49;2.42;;;2.17;;
21816;SDS011;13247;47.504;7.382;2023-07-22T05:38:34;3.90;;;2.47;;
21816;SDS011;13247;47.504;7.382;2023-07-22T05:41:19;2.45;;;1.85;;
21816;SDS011;13247;47.504;7.382;2023-07-22T05:44:04;3.03;;;1.75;;
21816;SDS011;13247;47.504;7.382;2023-07-22T05:46:48;2.70;;;2.05;;
21816;SDS011;13247;47.504;7.382;2023-07-22T05:49:33;2.78;;;2.40;;
21816;SDS011;13247;47.504;7.382;2023-07-22T05:52:17;4.35;;;2.58;;
21816;SDS011;13247;47.504;7.382;2023-07-22T05:55:02;2.63;;;2.10;;
21816;SDS011;13247;47.504;7.382;2023-07-22T05:57:47;2.38;;;2.00;;
21816;SDS011;13247;47.504;7.382;2023-07-22T06:00:35;5.47;;;2.40;;
21816;SDS011;13247;47.504;7.382;2023-07-22T06:03:19;3.20;;;2.13;;
21816;SDS011;13247;47.504;7.382;2023-07-22T06:06:04;4.15;;;2.60;;
21816;SDS011;13247;47.504;7.382;2023-07-22T06:08:49;5.88;;;2.67;;
21816;SDS011;13247;47.504;7.382;2023-07-22T06:11:33;5.10;;;2.63;;
21816;SDS011;13247;47.504;7.382;2023-07-22T06:14:18;3.40;;;2.33;;
21816;SDS011;13247;47.504;7.382;2023-07-22T06:17:03;4.50;;;2.10;;
21816;SDS011;13247;47.504;7.382;2023-07-22T06:19:47;2.97;;;1.95;;
21816;SDS011;13247;47.504;7.382;2023-07-22T06:22:32;2.15;;;1.73;;
21816;SDS011;13247;47.504;7.382;2023-07-22T06:25:17;4.53;;;1.70;;
21816;SDS011;13247;47.504;7.382;2023-07-22T06:28:01;5.53;;;2.17;;
21816;SDS011;13247;47.504;7.382;2023-07-22T06:30:46;6.82;;;2.60;;
21816;SDS011;13247;47.504;7.382;2023-07-22T06:33:31;4.68;;;2.20;;
21816;SDS011;13247;47.504;7.382;2023-07-22T06:36:15;5.43;;;2.05;;
21816;SDS011;13247;47.504;7.382;2023-07-22T06:39:01;3.33;;;1.73;;
21816;SDS011;13247;47.504;7.382;2023-07-22T06:41:46;3.90;;;2.13;;
21816;SDS011;13247;47.504;7.382;2023-07-22T06:44:30;2.67;;;1.98;;
21816;SDS011;13247;47.504;7.382;2023-07-22T06:47:15;3.90;;;2.03;;
21816;SDS011;13247;47.504;7.382;2023-07-22T06:49:59;4.15;;;1.83;;
21816;SDS011;13247;47.504;7.382;2023-07-22T06:52:44;5.32;;;2.35;;
21816;SDS011;13247;47.504;7.382;2023-07-22T06:55:28;2.55;;;2.17;;
21816;SDS011;13247;47.504;7.382;2023-07-22T06:58:13;3.95;;;2.05;;
21816;SDS011;13247;47.504;7.382;2023-07-22T07:00:58;4.03;;;2.10;;
21816;SDS011;13247;47.504;7.382;2023-07-22T07:03:42;2.55;;;1.90;;
21816;SDS011;13247;47.504;7.382;2023-07-22T07:06:28;2.53;;;1.60;;
21816;SDS011;13247;47.504;7.382;2023-07-22T07:09:15;1.67;;;1.48;;
21816;SDS011;13247;47.504;7.382;2023-07-22T07:12:01;1.95;;;1.55;;
21816;SDS011;13247;47.504;7.382;2023-07-22T07:14:46;3.15;;;1.90;;
21816;SDS011;13247;47.504;7.382;2023-07-22T07:17:33;4.78;;;1.83;;
21816;SDS011;13247;47.504;7.382;2023-07-22T07:20:17;3.78;;;2.20;;
21816;SDS011;13247;47.504;7.382;2023-07-22T07:23:02;5.00;;;2.60;;
21816;SDS011;13247;47.504;7.382;2023-07-22T07:25:46;5.57;;;2.10;;
21816;SDS011;13247;47.504;7.382;2023-07-22T07:28:31;3.30;;;2.08;;
21816;SDS011;13247;47.504;7.382;2023-07-22T07:31:15;3.47;;;1.75;;
21816;SDS011;13247;47.504;7.382;2023-07-22T07:34:00;3.97;;;1.33;;
21816;SDS011;13247;47.504;7.382;2023-07-22T07:36:46;2.25;;;1.40;;
21816;SDS011;13247;47.504;7.382;2023-07-22T07:39:32;2.40;;;1.38;;
21816;SDS011;13247;47.504;7.382;2023-07-22T07:42:16;4.05;;;1.63;;
21816;SDS011;13247;47.504;7.382;2023-07-22T07:45:01;2.08;;;1.17;;
21816;SDS011;13247;47.504;7.382;2023-07-22T07:47:46;2.92;;;1.23;;
21816;SDS011;13247;47.504;7.382;2023-07-22T07:50:31;2.10;;;1.00;;
21816;SDS011;13247;47.504;7.382;2023-07-22T07:53:16;1.25;;;0.90;;
21816;SDS011;13247;47.504;7.382;2023-07-22T07:56:00;1.20;;;1.05;;
21816;SDS011;13247;47.504;7.382;2023-07-22T07:58:46;3.53;;;1.15;;
21816;SDS011;13247;47.504;7.382;2023-07-22T08:01:31;2.30;;;0.98;;
21816;SDS011;13247;47.504;7.382;2023-07-22T08:04:16;1.60;;;0.98;;
21816;SDS011;13247;47.504;7.382;2023-07-22T08:07:01;1.65;;;1.13;;
21816;SDS011;13247;47.504;7.382;2023-07-22T08:09:48;0.98;;;0.82;;
21816;SDS011;13247;47.504;7.382;2023-07-22T08:12:33;1.35;;;1.00;;
21816;SDS011;13247;47.504;7.382;2023-07-22T08:15:18;1.40;;;1.10;;
21816;SDS011;13247;47.504;7.382;2023-07-22T08:18:02;2.63;;;1.00;;
21816;SDS011;13247;47.504;7.382;2023-07-22T08:20:47;1.52;;;1.08;;
21816;SDS011;13247;47.504;7.382;2023-07-22T08:23:32;0.93;;;0.90;;
21816;SDS011;13247;47.504;7.382;2023-07-22T08:26:17;1.83;;;1.00;;
21816;SDS011;13247;47.504;7.382;2023-07-22T08:29:04;1.10;;;1.00;;
21816;SDS011;13247;47.504;7.382;2023-07-22T08:31:49;3.88;;;0.85;;
21816;SDS011;13247;47.504;7.382;2023-07-22T08:34:34;2.58;;;1.50;;
21816;SDS011;13247;47.504;7.382;2023-07-22T08:37:19;0.93;;;0.77;;
21816;SDS011;13247;47.504;7.382;2023-07-22T08:40:04;1.80;;;1.00;;
21816;SDS011;13247;47.504;7.382;2023-07-22T08:42:49;1.42;;;1.00;;
21816;SDS011;13247;47.504;7.382;2023-07-22T08:45:37;1.73;;;0.80;;
21816;SDS011;13247;47.504;7.382;2023-07-22T08:48:24;1.00;;;0.75;;
21816;SDS011;13247;47.504;7.382;2023-07-22T08:51:15;3.05;;;0.93;;
21816;SDS011;13247;47.504;7.382;2023-07-22T08:54:01;0.70;;;0.70;;
21816;SDS011;13247;47.504;7.382;2023-07-22T08:56:46;2.28;;;1.00;;
21816;SDS011;13247;47.504;7.382;2023-07-22T08:59:31;2.17;;;1.58;;
21816;SDS011;13247;47.504;7.382;2023-07-22T09:02:17;2.50;;;1.27;;
21816;SDS011;13247;47.504;7.382;2023-07-22T09:05:02;2.53;;;1.30;;
21816;SDS011;13247;47.504;7.382;2023-07-22T09:07:47;1.60;;;1.30;;
21816;SDS011;13247;47.504;7.382;2023-07-22T09:10:34;1.13;;;0.98;;
21816;SDS011;13247;47.504;7.382;2023-07-22T09:13:21;1.13;;;1.02;;
21816;SDS011;13247;47.504;7.382;2023-07-22T09:16:09;2.28;;;1.20;;
21816;SDS011;13247;47.504;7.382;2023-07-22T09:18:55;2.45;;;1.70;;
21816;SDS011;13247;47.504;7.382;2023-07-22T09:21:44;1.33;;;1.23;;
21816;SDS011;13247;47.504;7.382;2023-07-22T09:24:28;1.30;;;1.02;;
21816;SDS011;13247;47.504;7.382;2023-07-22T09:27:13;1.20;;;1.10;;
21816;SDS011;13247;47.504;7.382;2023-07-22T09:29:58;1.15;;;1.05;;
21816;SDS011;13247;47.504;7.382;2023-07-22T09:32:42;1.83;;;0.85;;
21816;SDS011;13247;47.504;7.382;2023-07-22T09:35:31;1.50;;;1.00;;
21816;SDS011;13247;47.504;7.382;2023-07-22T09:38:29;1.30;;;0.90;;
21816;SDS011;13247;47.504;7.382;2023-07-22T09:41:15;1.33;;;1.23;;
21816;SDS011;13247;47.504;7.382;2023-07-22T09:44:04;2.92;;;1.10;;
21816;SDS011;13247;47.504;7.382;2023-07-22T09:46:53;1.88;;;1.23;;
21816;SDS011;13247;47.504;7.382;2023-07-22T09:49:39;1.13;;;1.02;;
21816;SDS011;13247;47.504;7.382;2023-07-22T09:52:25;1.10;;;1.00;;
21816;SDS011;13247;47.504;7.382;2023-07-22T09:55:10;2.20;;;0.90;;
21816;SDS011;13247;47.504;7.382;2023-07-22T09:58:02;2.00;;;1.23;;
21816;SDS011;13247;47.504;7.382;2023-07-22T10:00:54;2.15;;;1.10;;
21816;SDS011;13247;47.504;7.382;2023-07-22T10:03:38;1.65;;;1.40;;
21816;SDS011;13247;47.504;7.382;2023-07-22T10:06:27;1.33;;;1.08;;
21816;SDS011;13247;47.504;7.382;2023-07-22T10:09:12;0.90;;;0.80;;
21816;SDS011;13247;47.504;7.382;2023-07-22T10:11:58;2.75;;;1.02;;
21816;SDS011;13247;47.504;7.382;2023-07-22T10:14:43;3.22;;;1.30;;
21816;SDS011;13247;47.504;7.382;2023-07-22T10:17:29;2.67;;;1.13;;
21816;SDS011;13247;47.504;7.382;2023-07-22T10:20:14;1.50;;;0.90;;
21816;SDS011;13247;47.504;7.382;2023-07-22T10:22:58;1.00;;;0.90;;
21816;SDS011;13247;47.504;7.382;2023-07-22T10:25:44;1.83;;;0.98;;
21816;SDS011;13247;47.504;7.382;2023-07-22T10:28:32;1.75;;;1.00;;
21816;SDS011;13247;47.504;7.382;2023-07-22T10:31:17;1.90;;;1.05;;
21816;SDS011;13247;47.504;7.382;2023-07-22T10:34:02;2.10;;;1.25;;
21816;SDS011;13247;47.504;7.382;2023-07-22T10:36:47;1.73;;;1.10;;
21816;SDS011;13247;47.504;7.382;2023-07-22T10:39:33;1.65;;;1.05;;
21816;SDS011;13247;47.504;7.382;2023-07-22T10:42:24;1.63;;;1.10;;
21816;SDS011;13247;47.504;7.382;2023-07-22T10:48:25;1.40;;;1.00;;
21816;SDS011;13247;47.504;7.382;2023-07-22T10:51:12;1.05;;;0.90;;
21816;SDS011;13247;47.504;7.382;2023-07-22T10:53:59;1.50;;;1.23;;
21816;SDS011;13247;47.504;7.382;2023-07-22T10:56:43;2.10;;;1.05;;
21816;SDS011;13247;47.504;7.382;2023-07-22T10:59:28;1.27;;;1.17;;
21816;SDS011;13247;47.504;7.382;2023-07-22T11:02:27;1.00;;;0.85;;
21816;SDS011;13247;47.504;7.382;2023-07-22T11:05:12;1.10;;;1.00;;
21816;SDS011;13247;47.504;7.382;2023-07-22T11:08:03;1.70;;;1.02;;
21816;SDS011;13247;47.504;7.382;2023-07-22T11:10:52;1.08;;;0.77;;
21816;SDS011;13247;47.504;7.382;2023-07-22T11:13:38;1.05;;;0.82;;
21816;SDS011;13247;47.504;7.382;2023-07-22T11:16:24;2.95;;;0.90;;
21816;SDS011;13247;47.504;7.382;2023-07-22T11:19:13;1.73;;;1.00;;
21816;SDS011;13247;47.504;7.382;2023-07-22T11:21:59;1.30;;;1.17;;
21816;SDS011;13247;47.504;7.382;2023-07-22T11:24:44;2.47;;;0.95;;
21816;SDS011;13247;47.504;7.382;2023-07-22T11:27:29;1.35;;;1.02;;
21816;SDS011;13247;47.504;7.382;2023-07-22T11:30:14;0.80;;;0.70;;
21816;SDS011;13247;47.504;7.382;2023-07-22T11:32:58;2.53;;;1.23;;
21816;SDS011;13247;47.504;7.382;2023-07-22T11:35:43;3.85;;;1.00;;
21816;SDS011;13247;47.504;7.382;2023-07-22T11:38:27;1.50;;;1.30;;
21816;SDS011;13247;47.504;7.382;2023-07-22T11:41:12;1.85;;;1.25;;
21816;SDS011;13247;47.504;7.382;2023-07-22T11:43:59;1.50;;;1.30;;
21816;SDS011;13247;47.504;7.382;2023-07-22T11:47:03;1.38;;;1.10;;
21816;SDS011;13247;47.504;7.382;2023-07-22T11:49:51;1.10;;;0.98;;
21816;SDS011;13247;47.504;7.382;2023-07-22T11:52:36;1.17;;;1.02;;
21816;SDS011;13247;47.504;7.382;2023-07-22T11:55:22;2.75;;;1.50;;
21816;SDS011;13247;47.504;7.382;2023-07-22T11:58:10;1.85;;;1.20;;
21816;SDS011;13247;47.504;7.382;2023-07-22T12:01:01;1.25;;;1.00;;
21816;SDS011;13247;47.504;7.382;2023-07-22T12:03:55;2.80;;;1.13;;
21816;SDS011;13247;47.504;7.382;2023-07-22T12:06:40;1.80;;;1.35;;
21816;SDS011;13247;47.504;7.382;2023-07-22T12:09:25;1.55;;;1.35;;
21816;SDS011;13247;47.504;7.382;2023-07-22T12:12:10;1.88;;;1.25;;
21816;SDS011;13247;47.504;7.382;2023-07-22T12:14:55;1.63;;;1.20;;
21816;SDS011;13247;47.504;7.382;2023-07-22T12:17:48;3.00;;;1.17;;
21816;SDS011;13247;47.504;7.382;2023-07-22T12:20:38;1.67;;;1.38;;
21816;SDS011;13247;47.504;7.382;2023-07-22T12:23:24;2.08;;;1.52;;
21816;SDS011;13247;47.504;7.382;2023-07-22T12:26:09;2.15;;;1.42;;
21816;SDS011;13247;47.504;7.382;2023-07-22T12:28:54;3.30;;;1.27;;
21816;SDS011;13247;47.504;7.382;2023-07-22T12:31:38;1.25;;;1.10;;
21816;SDS011;13247;47.504;7.382;2023-07-22T12:34:23;3.53;;;1.70;;
21816;SDS011;13247;47.504;7.382;2023-07-22T12:37:07;2.22;;;1.20;;
21816;SDS011;13247;47.504;7.382;2023-07-22T12:39:52;1.10;;;1.00;;
21816;SDS011;13247;47.504;7.382;2023-07-22T12:42:36;2.58;;;1.10;;
21816;SDS011;13247;47.504;7.382;2023-07-22T12:45:21;1.48;;;1.20;;
21816;SDS011;13247;47.504;7.382;2023-07-22T12:48:06;1.25;;;1.13;;
21816;SDS011;13247;47.504;7.382;2023-07-22T12:50:52;1.35;;;1.08;;
21816;SDS011;13247;47.504;7.382;2023-07-22T12:53:37;1.23;;;1.10;;
21816;SDS011;13247;47.504;7.382;2023-07-22T12:56:22;1.88;;;1.20;;
21816;SDS011;13247;47.504;7.382;2023-07-22T12:59:07;1.27;;;1.17;;
21816;SDS011;13247;47.504;7.382;2023-07-22T13:01:51;3.95;;;1.42;;
21816;SDS011;13247;47.504;7.382;2023-07-22T13:04:36;1.70;;;1.27;;
21816;SDS011;13247;47.504;7.382;2023-07-22T13:07:20;1.77;;;1.30;;
21816;SDS011;13247;47.504;7.382;2023-07-22T13:10:07;1.75;;;1.30;;
21816;SDS011;13247;47.504;7.382;2023-07-22T13:12:56;1.38;;;1.10;;
21816;SDS011;13247;47.504;7.382;2023-07-22T13:15:40;2.15;;;1.25;;
21816;SDS011;13247;47.504;7.382;2023-07-22T13:18:25;1.38;;;1.08;;
21816;SDS011;13247;47.504;7.382;2023-07-22T13:21:09;3.03;;;1.38;;
21816;SDS011;13247;47.504;7.382;2023-07-22T13:23:54;1.42;;;1.20;;
21816;SDS011;13247;47.504;7.382;2023-07-22T13:26:38;2.53;;;1.05;;
21816;SDS011;13247;47.504;7.382;2023-07-22T13:29:23;2.67;;;1.23;;
21816;SDS011;13247;47.504;7.382;2023-07-22T13:32:08;3.00;;;1.27;;
21816;SDS011;13247;47.504;7.382;2023-07-22T13:34:53;2.63;;;1.13;;
21816;SDS011;13247;47.504;7.382;2023-07-22T13:37:38;1.27;;;0.95;;
21816;SDS011;13247;47.504;7.382;2023-07-22T13:40:22;2.80;;;1.02;;
21816;SDS011;13247;47.504;7.382;2023-07-22T13:43:07;1.20;;;1.10;;
21816;SDS011;13247;47.504;7.382;2023-07-22T13:45:53;1.50;;;1.10;;
21816;SDS011;13247;47.504;7.382;2023-07-22T13:48:37;2.92;;;1.30;;
21816;SDS011;13247;47.504;7.382;2023-07-22T13:51:22;1.38;;;1.13;;
21816;SDS011;13247;47.504;7.382;2023-07-22T13:54:06;1.30;;;1.10;;
21816;SDS011;13247;47.504;7.382;2023-07-22T13:56:51;2.33;;;1.15;;
21816;SDS011;13247;47.504;7.382;2023-07-22T13:59:35;1.65;;;1.15;;
21816;SDS011;13247;47.504;7.382;2023-07-22T14:02:20;1.98;;;1.00;;
21816;SDS011;13247;47.504;7.382;2023-07-22T14:05:05;2.35;;;1.10;;
21816;SDS011;13247;47.504;7.382;2023-07-22T14:07:50;4.72;;;1.02;;
21816;SDS011;13247;47.504;7.382;2023-07-22T14:10:36;1.35;;;1.00;;
21816;SDS011;13247;47.504;7.382;2023-07-22T14:13:21;2.40;;;1.00;;
21816;SDS011;13247;47.504;7.382;2023-07-22T14:16:05;2.28;;;1.17;;
21816;SDS011;13247;47.504;7.382;2023-07-22T14:18:50;1.75;;;1.27;;
21816;SDS011;13247;47.504;7.382;2023-07-22T14:21:36;1.48;;;1.10;;
21816;SDS011;13247;47.504;7.382;2023-07-22T14:24:21;3.17;;;0.82;;
21816;SDS011;13247;47.504;7.382;2023-07-22T14:27:05;4.72;;;1.20;;
21816;SDS011;13247;47.504;7.382;2023-07-22T14:29:50;1.90;;;1.30;;
21816;SDS011;13247;47.504;7.382;2023-07-22T14:32:35;1.83;;;1.10;;
21816;SDS011;13247;47.504;7.382;2023-07-22T14:35:19;1.40;;;0.90;;
21816;SDS011;13247;47.504;7.382;2023-07-22T14:38:05;3.88;;;1.20;;
21816;SDS011;13247;47.504;7.382;2023-07-22T14:40:50;1.02;;;0.93;;
21816;SDS011;13247;47.504;7.382;2023-07-22T14:43:34;3.47;;;1.40;;
21816;SDS011;13247;47.504;7.382;2023-07-22T14:46:19;1.40;;;0.98;;
21816;SDS011;13247;47.504;7.382;2023-07-22T14:49:04;0.77;;;0.77;;
21816;SDS011;13247;47.504;7.382;2023-07-22T14:51:53;0.98;;;0.80;;
21816;SDS011;13247;47.504;7.382;2023-07-22T14:54:37;2.55;;;1.00;;
21816;SDS011;13247;47.504;7.382;2023-07-22T14:57:22;4.07;;;0.90;;
21816;SDS011;13247;47.504;7.382;2023-07-22T15:00:10;1.88;;;1.27;;
21816;SDS011;13247;47.504;7.382;2023-07-22T15:02:56;1.38;;;0.88;;
21816;SDS011;13247;47.504;7.382;2023-07-22T15:05:41;0.82;;;0.80;;
21816;SDS011;13247;47.504;7.382;2023-07-22T15:08:25;1.33;;;1.10;;
21816;SDS011;13247;47.504;7.382;2023-07-22T15:11:10;1.38;;;0.98;;
21816;SDS011;13247;47.504;7.382;2023-07-22T15:13:54;1.10;;;0.82;;
21816;SDS011;13247;47.504;7.382;2023-07-22T15:16:39;1.92;;;0.90;;
21816;SDS011;13247;47.504;7.382;2023-07-22T15:19:24;1.20;;;1.00;;
21816;SDS011;13247;47.504;7.382;2023-07-22T15:22:09;1.33;;;0.90;;
21816;SDS011;13247;47.504;7.382;2023-07-22T15:24:54;1.40;;;0.93;;
21816;SDS011;13247;47.504;7.382;2023-07-22T15:27:38;1.60;;;0.80;;
21816;SDS011;13247;47.504;7.382;2023-07-22T15:30:23;1.58;;;1.00;;
21816;SDS011;13247;47.504;7.382;2023-07-22T15:33:07;3.20;;;1.00;;
21816;SDS011;13247;47.504;7.382;2023-07-22T15:35:53;1.02;;;0.88;;
21816;SDS011;13247;47.504;7.382;2023-07-22T15:38:39;2.20;;;1.00;;
21816;SDS011;13247;47.504;7.382;2023-07-22T15:41:23;1.30;;;0.90;;
21816;SDS011;13247;47.504;7.382;2023-07-22T15:44:08;1.40;;;1.17;;
21816;SDS011;13247;47.504;7.382;2023-07-22T15:46:53;3.60;;;1.23;;
21816;SDS011;13247;47.504;7.382;2023-07-22T15:49:38;2.47;;;1.42;;
21816;SDS011;13247;47.504;7.382;2023-07-22T15:52:23;1.17;;;1.08;;
21816;SDS011;13247;47.504;7.382;2023-07-22T15:55:08;1.20;;;1.10;;
21816;SDS011;13247;47.504;7.382;2023-07-22T15:57:52;4.18;;;1.20;;
21816;SDS011;13247;47.504;7.382;2023-07-22T16:00:37;2.55;;;1.20;;
21816;SDS011;13247;47.504;7.382;2023-07-22T16:03:22;1.80;;;1.48;;
21816;SDS011;13247;47.504;7.382;2023-07-22T16:06:07;6.70;;;1.02;;
21816;SDS011;13247;47.504;7.382;2023-07-22T16:08:51;1.48;;;1.17;;
21816;SDS011;13247;47.504;7.382;2023-07-22T16:11:36;1.98;;;1.63;;
21816;SDS011;13247;47.504;7.382;2023-07-22T16:14:20;1.45;;;1.23;;
21816;SDS011;13247;47.504;7.382;2023-07-22T16:17:06;2.22;;;1.40;;
21816;SDS011;13247;47.504;7.382;2023-07-22T16:19:50;2.28;;;1.48;;
21816;SDS011;13247;47.504;7.382;2023-07-22T16:22:35;4.45;;;1.35;;
21816;SDS011;13247;47.504;7.382;2023-07-22T16:25:20;1.70;;;1.42;;
21816;SDS011;13247;47.504;7.382;2023-07-22T16:28:04;3.15;;;1.48;;
21816;SDS011;13247;47.504;7.382;2023-07-22T16:30:49;2.50;;;1.48;;
21816;SDS011;13247;47.504;7.382;2023-07-22T16:33:33;1.63;;;1.25;;
21816;SDS011;13247;47.504;7.382;2023-07-22T16:36:18;3.58;;;1.30;;
21816;SDS011;13247;47.504;7.382;2023-07-22T16:39:02;2.85;;;1.40;;